This is the latest recevied weather packets stored in our database for station/object N0NAI-13. If no packets are shown the sender has not sent any weather packets the latest 10 day(s).
| Time | Temp. | Humidity | Pressure | Rain* | Wind** | Luminosity | Snow |
|---|---|---|---|---|---|---|---|
| 1777992320 | 9.44° C | 45% | 1012.9 hPa | 0 mm | - | - | - |
| 1777991717 | 8.89° C | 49% | 1012.9 hPa | 0 mm | - | - | - |
| 1777991132 | 8.33° C | 51% | 1012.9 hPa | 0 mm | - | - | - |
| 1777990517 | 7.78° C | 55% | 1013 hPa | 0 mm | - | - | - |
| 1777989920 | 7.22° C | 58% | 1013 hPa | 0 mm | - | - | - |
| 1777989322 | 6.67° C | 59% | 1012.9 hPa | 0 mm | - | - | - |
| 1777988725 | 6.11° C | 59% | 1012.9 hPa | 0 mm | - | - | - |
| 1777988128 | 6.11° C | 60% | 1012.9 hPa | 0 mm | - | - | - |
| 1777987531 | 5.56° C | 60% | 1012.8 hPa | 0 mm | - | - | - |
| 1777986916 | 5.56° C | 63% | 1012.7 hPa | 0 mm | - | - | - |
| 1777986319 | 5.56° C | 65% | 1012.7 hPa | 0 mm | - | - | - |
| 1777985722 | 5° C | 67% | 1012.4 hPa | 0 mm | - | - | - |
| 1777985125 | 4.44° C | 70% | 1012.4 hPa | 0 mm | - | - | - |
| 1777984528 | 3.89° C | 73% | 1012.3 hPa | 0 mm | - | - | - |
| 1777983930 | 2.22° C | 77% | 1012.1 hPa | 0 mm | - | - | - |
| 1777983315 | 1.11° C | 79% | 1011.9 hPa | 0 mm | - | - | - |
| 1777982719 | 0.56° C | 82% | 1011.8 hPa | 0 mm | - | - | - |
| 1777982121 | 0.56° C | 82% | 1011.6 hPa | 0 mm | - | - | - |
| 1777981524 | 0.56° C | 82% | 1011.3 hPa | 0 mm | - | - | - |
| 1777980921 | 0.56° C | 81% | 1011.1 hPa | 0 mm | - | - | - |
| 1777980318 | 0.56° C | 81% | 1010.9 hPa | 0 mm | - | - | - |
| 1777979715 | 0.56° C | 80% | 1010.7 hPa | 0 mm | - | - | - |
| 1777979118 | 0.56° C | 80% | 1010.7 hPa | 0 mm | - | - | - |
| 1777978521 | 0.56° C | 79% | 1010.3 hPa | 0 mm | - | - | - |
| 1777977924 | 1.11° C | 78% | 1010.3 hPa | 0 mm | - | - | - |
* Rain latest hour (hover to see other rain measurements)
** Current wind speed in m/s (hover to see current wind gust speed)